createdAt,value
2023-06-24T00:00:16.201Z,0.00
2023-06-24T00:01:16.200Z,0.00
2023-06-24T00:02:16.216Z,0.00
2023-06-24T00:03:16.294Z,0.00
2023-06-24T00:04:16.166Z,0.00
2023-06-24T00:05:16.129Z,0.00
2023-06-24T00:06:16.158Z,0.00
2023-06-24T00:07:16.171Z,0.00
2023-06-24T00:08:16.149Z,0.00
2023-06-24T00:09:16.133Z,0.00
2023-06-24T00:10:16.236Z,0.00
2023-06-24T00:11:16.111Z,0.00
2023-06-24T00:12:16.086Z,0.00
2023-06-24T00:13:16.087Z,0.00
2023-06-24T00:14:16.052Z,0.00
2023-06-24T00:15:16.056Z,0.00
2023-06-24T00:16:16.029Z,0.00
2023-06-24T00:17:16.037Z,0.00
2023-06-24T00:18:16.059Z,0.00
2023-06-24T00:19:16.003Z,0.00
2023-06-24T00:20:16.197Z,0.00
2023-06-24T00:21:15.979Z,0.00
2023-06-24T00:22:16.436Z,0.00
2023-06-24T00:23:15.931Z,0.00
2023-06-24T00:24:15.929Z,0.00
2023-06-24T00:25:15.949Z,0.00
2023-06-24T00:26:15.935Z,0.00
2023-06-24T00:27:15.898Z,0.00
2023-06-24T00:28:15.951Z,0.00
2023-06-24T00:29:15.866Z,0.00
2023-06-24T00:30:15.881Z,0.00
2023-06-24T00:31:15.896Z,0.00
2023-06-24T00:32:15.828Z,0.00
2023-06-24T00:33:15.820Z,0.00
2023-06-24T00:34:15.835Z,0.00
2023-06-24T00:35:15.826Z,0.00
2023-06-24T00:36:15.800Z,0.00
2023-06-24T00:37:15.809Z,0.00
2023-06-24T00:38:15.773Z,0.00
2023-06-24T00:39:15.764Z,0.00
2023-06-24T00:40:15.780Z,0.00
2023-06-24T00:41:17.151Z,0.00
2023-06-24T00:42:15.763Z,0.00
2023-06-24T00:43:15.707Z,0.00
2023-06-24T00:44:15.709Z,0.00
2023-06-24T00:45:15.702Z,0.00
2023-06-24T00:46:15.677Z,0.00
2023-06-24T00:47:15.712Z,0.00
2023-06-24T00:48:15.666Z,0.00
2023-06-24T00:49:15.751Z,0.00
2023-06-24T00:50:15.651Z,0.00
2023-06-24T00:51:15.629Z,0.00
2023-06-24T00:52:15.618Z,0.00
2023-06-24T00:53:15.641Z,0.00
2023-06-24T00:54:15.625Z,0.00
2023-06-24T00:55:15.603Z,0.00
2023-06-24T00:56:15.573Z,0.00
2023-06-24T00:57:15.574Z,0.00
2023-06-24T00:58:15.550Z,0.00
2023-06-24T00:59:15.513Z,0.00
2023-06-24T01:00:15.559Z,0.00
2023-06-24T01:01:15.559Z,0.00
2023-06-24T01:02:15.511Z,0.00
2023-06-24T01:03:15.618Z,0.00
2023-06-24T01:04:15.474Z,0.00
2023-06-24T01:05:15.465Z,0.00
2023-06-24T01:06:15.465Z,0.00
2023-06-24T01:07:15.456Z,0.00
2023-06-24T01:08:15.469Z,0.00
2023-06-24T01:09:15.401Z,0.00
2023-06-24T01:10:15.506Z,0.00
2023-06-24T01:11:15.398Z,0.00
2023-06-24T01:12:15.415Z,0.00
2023-06-24T01:13:15.389Z,0.00
2023-06-24T01:14:15.358Z,0.00
2023-06-24T01:15:15.350Z,0.00
2023-06-24T01:16:15.322Z,0.00
2023-06-24T01:17:15.321Z,0.00
2023-06-24T01:18:15.382Z,0.00
2023-06-24T01:19:15.355Z,0.00
2023-06-24T01:20:15.294Z,0.00
2023-06-24T01:21:15.268Z,0.00
2023-06-24T01:22:15.274Z,0.00
2023-06-24T01:23:15.355Z,0.00
2023-06-24T01:24:15.233Z,0.00
2023-06-24T01:25:15.269Z,0.00
2023-06-24T01:26:15.230Z,0.00
2023-06-24T01:27:15.232Z,0.00
2023-06-24T01:28:15.194Z,0.00
2023-06-24T01:29:15.167Z,0.00
2023-06-24T01:30:15.236Z,0.00
2023-06-24T01:31:15.201Z,0.00
2023-06-24T01:32:15.161Z,0.00
2023-06-24T01:33:15.237Z,0.00
2023-06-24T01:34:15.147Z,0.00
2023-06-24T01:35:15.140Z,0.00
2023-06-24T01:36:15.149Z,0.00
2023-06-24T01:37:15.116Z,0.00
2023-06-24T01:38:15.107Z,0.00
2023-06-24T01:39:15.091Z,0.00
2023-06-24T01:40:15.059Z,0.00
2023-06-24T01:41:15.090Z,0.00
2023-06-24T01:42:15.036Z,0.00
2023-06-24T01:43:15.057Z,0.00
2023-06-24T01:44:15.045Z,0.00
2023-06-24T01:45:15.026Z,0.00
2023-06-24T01:46:15.007Z,0.00
2023-06-24T01:47:15.040Z,0.00
2023-06-24T01:48:15.012Z,0.00
2023-06-24T01:49:14.946Z,0.00
2023-06-24T01:50:14.961Z,0.00
2023-06-24T01:51:14.959Z,0.00
2023-06-24T01:52:14.955Z,0.00
2023-06-24T01:53:14.931Z,0.00
2023-06-24T01:54:14.920Z,0.00
2023-06-24T01:55:14.935Z,0.00
2023-06-24T01:56:14.904Z,0.00
2023-06-24T01:57:14.899Z,0.00
2023-06-24T01:58:14.877Z,0.00
2023-06-24T01:59:14.868Z,0.00
2023-06-24T02:00:14.859Z,0.00
2023-06-24T02:01:14.841Z,0.00
2023-06-24T02:02:14.841Z,0.00
2023-06-24T02:03:15.004Z,0.00
2023-06-24T02:04:14.828Z,0.00
2023-06-24T02:05:14.778Z,0.00
2023-06-24T02:06:14.774Z,0.00
2023-06-24T02:07:14.817Z,0.00
2023-06-24T02:08:14.742Z,0.00
2023-06-24T02:09:14.775Z,0.00
2023-06-24T02:10:14.784Z,0.00
2023-06-24T02:11:14.716Z,0.00
2023-06-24T02:12:14.742Z,0.00
2023-06-24T02:13:14.699Z,0.00
2023-06-24T02:14:14.687Z,0.00
2023-06-24T02:15:14.684Z,0.00
2023-06-24T02:16:14.692Z,0.00
2023-06-24T02:17:14.643Z,0.00
2023-06-24T02:18:14.681Z,4.00
2023-06-24T02:19:14.628Z,4.00
2023-06-24T02:20:14.623Z,4.00
2023-06-24T02:21:14.612Z,4.00
2023-06-24T02:22:14.577Z,0.00
2023-06-24T02:23:14.601Z,4.00
2023-06-24T02:24:14.641Z,4.00
2023-06-24T02:25:14.600Z,4.00
2023-06-24T02:26:14.541Z,4.00
2023-06-24T02:27:14.548Z,4.00
2023-06-24T02:28:14.559Z,8.00
2023-06-24T02:29:14.554Z,4.00
2023-06-24T02:30:14.523Z,8.00
2023-06-24T02:31:14.581Z,4.00
2023-06-24T02:32:14.486Z,8.00
2023-06-24T02:33:14.458Z,8.00
2023-06-24T02:34:14.479Z,12.00
2023-06-24T02:35:14.501Z,12.00
2023-06-24T02:36:14.419Z,12.00
2023-06-24T02:37:14.442Z,16.00
2023-06-24T02:38:14.422Z,24.00
2023-06-24T02:39:14.405Z,24.00
2023-06-24T02:40:14.440Z,24.00
2023-06-24T02:41:14.418Z,32.00
2023-06-24T02:42:14.362Z,32.00
2023-06-24T02:43:14.354Z,40.00
2023-06-24T02:44:14.328Z,44.00
2023-06-24T02:45:14.380Z,48.00
2023-06-24T02:46:16.492Z,56.00
2023-06-24T02:47:14.368Z,64.00
2023-06-24T02:48:14.296Z,68.00
2023-06-24T02:49:14.308Z,72.00
2023-06-24T02:50:14.266Z,84.00
2023-06-24T02:51:14.284Z,88.00
2023-06-24T02:52:14.296Z,100.00
2023-06-24T02:53:14.240Z,100.00
2023-06-24T02:54:14.230Z,108.00
2023-06-24T02:55:14.260Z,120.00
2023-06-24T02:56:15.814Z,132.00
2023-06-24T02:57:14.184Z,140.00
2023-06-24T02:58:14.246Z,152.00
2023-06-24T02:59:14.190Z,160.00
2023-06-24T03:00:14.183Z,172.00
2023-06-24T03:01:14.157Z,180.00
2023-06-24T03:02:14.129Z,192.00
2023-06-24T03:03:14.230Z,204.00
2023-06-24T03:04:14.118Z,216.00
2023-06-24T03:05:14.101Z,228.00
2023-06-24T03:06:14.135Z,244.00
2023-06-24T03:07:14.201Z,272.00
2023-06-24T03:08:14.114Z,284.00
2023-06-24T03:09:14.054Z,292.00
2023-06-24T03:10:14.057Z,308.00
2023-06-24T03:11:14.048Z,324.00
2023-06-24T03:12:14.055Z,352.00
2023-06-24T03:13:14.064Z,368.00
2023-06-24T03:14:14.021Z,392.00
2023-06-24T03:15:14.015Z,400.00
2023-06-24T03:16:13.988Z,456.00
2023-06-24T03:17:13.994Z,472.00
2023-06-24T03:18:13.981Z,500.00
2023-06-24T03:19:14.026Z,560.00
2023-06-24T03:20:13.962Z,588.00
2023-06-24T03:21:13.936Z,624.00
2023-06-24T03:22:13.944Z,688.00
2023-06-24T03:23:13.893Z,720.00
2023-06-24T03:24:13.918Z,776.00
2023-06-24T03:25:13.913Z,756.00
2023-06-24T03:26:13.912Z,836.00
2023-06-24T03:27:13.891Z,876.00
2023-06-24T03:28:13.838Z,868.00
2023-06-24T03:29:13.893Z,932.00
2023-06-24T03:30:13.837Z,972.00
2023-06-24T03:31:13.897Z,1044.00
2023-06-24T03:32:13.791Z,1072.00
2023-06-24T03:33:13.801Z,1112.00
2023-06-24T03:34:13.815Z,1116.00
2023-06-24T03:35:13.817Z,1100.00
2023-06-24T03:36:13.775Z,1136.00
2023-06-24T03:37:13.759Z,1112.00
2023-06-24T03:38:13.754Z,1148.00
2023-06-24T03:39:13.742Z,1184.00
2023-06-24T03:40:13.706Z,1188.00
2023-06-24T03:41:13.719Z,1204.00
2023-06-24T03:42:13.725Z,1208.00
2023-06-24T03:43:13.705Z,1296.00
2023-06-24T03:44:13.696Z,1308.00
2023-06-24T03:45:13.644Z,1340.00
2023-06-24T03:46:13.706Z,1360.00
2023-06-24T03:47:13.641Z,1440.00
2023-06-24T03:48:13.628Z,1552.00
2023-06-24T03:49:13.685Z,1488.00
2023-06-24T03:50:13.607Z,1524.00
2023-06-24T03:51:13.601Z,1636.00
2023-06-24T03:52:13.613Z,1620.00
2023-06-24T03:53:13.564Z,1792.00
2023-06-24T03:54:13.581Z,1740.00
2023-06-24T03:55:13.576Z,1760.00
2023-06-24T03:56:13.535Z,1892.00
2023-06-24T03:57:13.522Z,1860.00
2023-06-24T03:58:13.520Z,2184.00
2023-06-24T03:59:13.496Z,2408.00
2023-06-24T04:00:13.514Z,2228.00
2023-06-24T04:01:13.509Z,2372.00
2023-06-24T04:02:13.498Z,2384.00
2023-06-24T04:03:13.518Z,2624.00
2023-06-24T04:04:13.443Z,2604.00
2023-06-24T04:05:13.465Z,2744.00
2023-06-24T04:06:13.399Z,2884.00
2023-06-24T04:07:13.430Z,2908.00
2023-06-24T04:08:13.403Z,2736.00
2023-06-24T04:09:13.387Z,2592.00
2023-06-24T04:10:13.378Z,2680.00
2023-06-24T04:11:13.432Z,2800.00
2023-06-24T04:12:13.362Z,3012.00
2023-06-24T04:13:13.334Z,3248.00
2023-06-24T04:14:13.308Z,3408.00
2023-06-24T04:15:13.305Z,3036.00
2023-06-24T04:16:13.316Z,3544.00
2023-06-24T04:17:13.326Z,3488.00
2023-06-24T04:18:13.269Z,3312.00
2023-06-24T04:19:13.282Z,3376.00
2023-06-24T04:20:13.267Z,3360.00
2023-06-24T04:21:13.253Z,3700.00
2023-06-24T04:22:13.261Z,3888.00
2023-06-24T04:23:13.237Z,4200.00
2023-06-24T04:24:13.241Z,4316.00
2023-06-24T04:25:13.200Z,4612.00
2023-06-24T04:26:13.191Z,4328.00
2023-06-24T04:27:13.164Z,4444.00
2023-06-24T04:28:13.202Z,4464.00
2023-06-24T04:29:13.169Z,4280.00
2023-06-24T04:30:13.177Z,4452.00
2023-06-24T04:31:13.181Z,4536.00
2023-06-24T04:32:13.136Z,4064.00
2023-06-24T04:33:13.125Z,4524.00
2023-06-24T04:34:13.145Z,3936.00
2023-06-24T04:35:13.100Z,3988.00
2023-06-24T04:36:13.067Z,3800.00
2023-06-24T04:37:13.082Z,3632.00
2023-06-24T04:38:13.046Z,3252.00
2023-06-24T04:39:13.070Z,3348.00
2023-06-24T04:40:13.069Z,3760.00
2023-06-24T04:41:13.024Z,4720.00
2023-06-24T04:42:13.047Z,3892.00
2023-06-24T04:43:12.991Z,4612.00
2023-06-24T04:44:13.021Z,4216.00
2023-06-24T04:45:12.978Z,3716.00
2023-06-24T04:46:12.984Z,4752.00
2023-06-24T04:47:12.974Z,3952.00
2023-06-24T04:48:12.965Z,4556.00
2023-06-24T04:49:12.918Z,4600.00
2023-06-24T04:50:12.954Z,4232.00
2023-06-24T04:51:12.913Z,5104.00
2023-06-24T04:52:12.906Z,4164.00
2023-06-24T04:53:12.870Z,4620.00
2023-06-24T04:54:12.880Z,4280.00
2023-06-24T04:55:12.916Z,4824.00
2023-06-24T04:56:12.839Z,4776.00
2023-06-24T04:57:12.845Z,5496.00
2023-06-24T04:58:12.818Z,4772.00
2023-06-24T04:59:12.832Z,4208.00
2023-06-24T05:00:12.815Z,4976.00
2023-06-24T05:01:12.898Z,4748.00
2023-06-24T05:02:12.794Z,5024.00
2023-06-24T05:03:12.778Z,4556.00
2023-06-24T05:04:12.766Z,4428.00
2023-06-24T05:05:12.790Z,4844.00
2023-06-24T05:06:12.754Z,4888.00
2023-06-24T05:07:12.876Z,5168.00
2023-06-24T05:08:12.707Z,4932.00
2023-06-24T05:09:12.710Z,5488.00
2023-06-24T05:10:12.709Z,6052.00
2023-06-24T05:11:12.731Z,6920.00
2023-06-24T05:12:12.688Z,7080.00
2023-06-24T05:13:12.663Z,8036.00
2023-06-24T05:14:12.663Z,8296.00
2023-06-24T05:15:12.675Z,9180.00
2023-06-24T05:16:12.621Z,10672.00
2023-06-24T05:17:12.675Z,12004.00
2023-06-24T05:18:12.620Z,13308.00
2023-06-24T05:19:12.585Z,13768.00
2023-06-24T05:20:12.572Z,14924.00
2023-06-24T05:21:12.594Z,16736.00
2023-06-24T05:22:12.581Z,16832.00
2023-06-24T05:23:12.557Z,16096.00
2023-06-24T05:24:12.530Z,15552.00
2023-06-24T05:25:12.547Z,15296.00
2023-06-24T05:26:12.571Z,15012.00
2023-06-24T05:27:12.484Z,13868.00
2023-06-24T05:28:12.517Z,12252.00
2023-06-24T05:29:12.484Z,10492.00
2023-06-24T05:30:12.478Z,9656.00
2023-06-24T05:31:12.464Z,8428.00
2023-06-24T05:32:12.468Z,7960.00
2023-06-24T05:33:12.470Z,8076.00
2023-06-24T05:34:12.500Z,9220.00
2023-06-24T05:35:12.421Z,9828.00
2023-06-24T05:36:12.403Z,9888.00
2023-06-24T05:37:12.391Z,9744.00
2023-06-24T05:38:12.406Z,10068.00
2023-06-24T05:39:12.400Z,11128.00
2023-06-24T05:40:12.376Z,11704.00
2023-06-24T05:41:12.342Z,12504.00
2023-06-24T05:42:12.350Z,12772.00
2023-06-24T05:43:12.361Z,11912.00
2023-06-24T05:44:12.361Z,12088.00
2023-06-24T05:45:12.316Z,13808.00
2023-06-24T05:46:12.330Z,15044.00
2023-06-24T05:47:12.295Z,14672.00
2023-06-24T05:48:12.244Z,14160.00
2023-06-24T05:49:12.268Z,13144.00
2023-06-24T05:50:12.256Z,13416.00
2023-06-24T05:51:12.236Z,13112.00
2023-06-24T05:52:12.221Z,14144.00
2023-06-24T05:53:12.241Z,20064.00
2023-06-24T05:54:12.227Z,22240.00
2023-06-24T05:55:12.184Z,35424.00
2023-06-24T05:56:12.158Z,13356.00
2023-06-24T05:57:12.150Z,13408.00
2023-06-24T05:58:12.152Z,13180.00
2023-06-24T05:59:12.193Z,14904.00
2023-06-24T06:00:12.124Z,14472.00
2023-06-24T06:01:12.141Z,14888.00
2023-06-24T06:02:12.121Z,15308.00
2023-06-24T06:03:12.258Z,18624.00
2023-06-24T06:04:12.168Z,29984.00
2023-06-24T06:05:12.084Z,32512.00
2023-06-24T06:06:12.047Z,32128.00
2023-06-24T06:07:12.111Z,35584.00
2023-06-24T06:08:12.055Z,26272.00
2023-06-24T06:09:12.038Z,29408.00
2023-06-24T06:10:12.040Z,32032.00
2023-06-24T06:11:11.990Z,18656.00
2023-06-24T06:12:12.010Z,14404.00
2023-06-24T06:13:11.992Z,26144.00
2023-06-24T06:14:11.986Z,36064.00
2023-06-24T06:15:12.115Z,15200.00
2023-06-24T06:16:11.937Z,14976.00
2023-06-24T06:17:11.924Z,18560.00
2023-06-24T06:18:11.919Z,19008.00
2023-06-24T06:19:11.918Z,14552.00
2023-06-24T06:20:11.936Z,15524.00
2023-06-24T06:21:11.905Z,15428.00
2023-06-24T06:22:11.888Z,16512.00
2023-06-24T06:23:11.913Z,20736.00
2023-06-24T06:24:11.871Z,19520.00
2023-06-24T06:25:11.875Z,22272.00
2023-06-24T06:26:11.834Z,22304.00
2023-06-24T06:27:11.812Z,31488.00
2023-06-24T06:28:11.801Z,15180.00
2023-06-24T06:29:11.838Z,14184.00
2023-06-24T06:30:11.798Z,18816.00
2023-06-24T06:31:11.810Z,20448.00
2023-06-24T06:32:11.754Z,21024.00
2023-06-24T06:33:11.784Z,16800.00
2023-06-24T06:34:11.727Z,28192.00
2023-06-24T06:35:11.764Z,21056.00
2023-06-24T06:36:11.748Z,17280.00
2023-06-24T06:37:11.702Z,18912.00
2023-06-24T06:38:11.689Z,33440.00
2023-06-24T06:39:11.687Z,43040.00
2023-06-24T06:40:11.730Z,45376.00
2023-06-24T06:41:11.665Z,24224.00
2023-06-24T06:42:11.664Z,38720.00
2023-06-24T06:43:11.664Z,42592.00
2023-06-24T06:44:11.619Z,52352.00
2023-06-24T06:45:11.614Z,37280.00
2023-06-24T06:46:11.707Z,52800.00
2023-06-24T06:47:11.608Z,50432.00
2023-06-24T06:48:11.604Z,50048.00
2023-06-24T06:49:11.610Z,48832.00
2023-06-24T06:50:11.631Z,47552.00
2023-06-24T06:51:11.610Z,48672.00
2023-06-24T06:52:11.592Z,47712.00
2023-06-24T06:53:11.571Z,48800.00
2023-06-24T06:54:11.511Z,48160.00
2023-06-24T06:55:11.507Z,45600.00
2023-06-24T06:56:11.502Z,45312.00
2023-06-24T06:57:11.488Z,46400.00
2023-06-24T06:58:11.525Z,49152.00
2023-06-24T06:59:11.471Z,51264.00
2023-06-24T07:00:11.470Z,53792.00
2023-06-24T07:01:11.496Z,54272.00
2023-06-24T07:02:11.443Z,53760.00
2023-06-24T07:03:11.467Z,52704.00
2023-06-24T07:04:11.438Z,44960.00
2023-06-24T07:05:11.463Z,53760.00
2023-06-24T07:06:11.384Z,44992.00
2023-06-24T07:07:11.465Z,39520.00
2023-06-24T07:08:11.405Z,49088.00
2023-06-24T07:09:11.372Z,47456.00
2023-06-24T07:10:11.366Z,47360.00
2023-06-24T07:11:11.338Z,47808.00
2023-06-24T07:12:11.375Z,47968.00
2023-06-24T07:13:11.329Z,48864.00
2023-06-24T07:14:11.292Z,48672.00
2023-06-24T07:15:13.188Z,46848.00
2023-06-24T07:16:11.303Z,44576.00
2023-06-24T07:17:11.316Z,42304.00
2023-06-24T07:18:11.267Z,43552.00
2023-06-24T07:19:11.267Z,40352.00
2023-06-24T07:20:11.253Z,40480.00
2023-06-24T07:21:11.239Z,41536.00
2023-06-24T07:22:11.252Z,43712.00
2023-06-24T07:23:11.201Z,43648.00
2023-06-24T07:24:11.224Z,46976.00
2023-06-24T07:25:11.241Z,49024.00
2023-06-24T07:26:11.189Z,50176.00
2023-06-24T07:27:11.191Z,47936.00
2023-06-24T07:28:11.174Z,46688.00
2023-06-24T07:29:11.149Z,44928.00
2023-06-24T07:30:11.130Z,44704.00
2023-06-24T07:31:11.184Z,46752.00
2023-06-24T07:32:11.130Z,48032.00
2023-06-24T07:33:11.158Z,48512.00
2023-06-24T07:34:11.108Z,50176.00
2023-06-24T07:35:11.091Z,51008.00
2023-06-24T07:36:12.144Z,56640.00
2023-06-24T07:37:22.769Z,59808.00
2023-06-24T07:38:12.118Z,61408.00
2023-06-24T07:39:11.036Z,62880.00
2023-06-24T07:40:11.062Z,61664.00
2023-06-24T07:41:11.115Z,60864.00
2023-06-24T07:42:11.004Z,58912.00
2023-06-24T07:43:11.008Z,59264.00
2023-06-24T07:44:11.066Z,51904.00
2023-06-24T07:45:10.977Z,59104.00
2023-06-24T07:46:10.982Z,57440.00
2023-06-24T07:47:11.084Z,55616.00
2023-06-24T07:48:11.049Z,56704.00
2023-06-24T07:49:11.015Z,58144.00
2023-06-24T07:50:10.925Z,61792.00
2023-06-24T07:51:10.944Z,64640.00
2023-06-24T07:52:10.915Z,63200.00
2023-06-24T07:53:10.908Z,62080.00
2023-06-24T07:54:10.948Z,58528.00
2023-06-24T07:55:10.879Z,54656.00
2023-06-24T07:56:10.887Z,54560.00
2023-06-24T07:57:10.864Z,52928.00
2023-06-24T07:58:10.836Z,56480.00
2023-06-24T07:59:10.875Z,54368.00
2023-06-24T08:00:10.864Z,54752.00
2023-06-24T08:01:10.826Z,59264.00
2023-06-24T08:02:10.801Z,62592.00
2023-06-24T08:03:10.938Z,67136.00
2023-06-24T08:04:10.907Z,67936.00
2023-06-24T08:05:10.845Z,67488.00
2023-06-24T08:06:10.769Z,66720.00
2023-06-24T08:07:10.788Z,66080.00
2023-06-24T08:08:10.733Z,63424.00
2023-06-24T08:09:10.789Z,64224.00
2023-06-24T08:10:10.725Z,68064.00
2023-06-24T08:11:10.770Z,68064.00
2023-06-24T08:12:10.698Z,72288.00
2023-06-24T08:13:10.716Z,72800.00
2023-06-24T08:14:10.752Z,74432.00
2023-06-24T08:15:10.687Z,73504.00
2023-06-24T08:16:10.678Z,73024.00
2023-06-24T08:17:10.696Z,71328.00
2023-06-24T08:18:10.680Z,70560.00
2023-06-24T08:19:10.718Z,63904.00
2023-06-24T08:20:10.640Z,70304.00
2023-06-24T08:21:10.633Z,68704.00
2023-06-24T08:22:10.613Z,68352.00
2023-06-24T08:23:10.624Z,68160.00
2023-06-24T08:24:10.634Z,68864.00
2023-06-24T08:25:10.634Z,70464.00
2023-06-24T08:26:17.188Z,72064.00
2023-06-24T08:27:11.580Z,76640.00
2023-06-24T08:28:10.586Z,76800.00
2023-06-24T08:39:04.088Z,91680.00
2023-06-24T08:39:31.543Z,91072.00
2023-06-24T08:40:32.227Z,87808.00
2023-06-24T08:41:31.498Z,89312.00
2023-06-24T08:42:31.486Z,88736.00
2023-06-24T08:43:31.516Z,90784.00
2023-06-24T08:44:31.522Z,90720.00
2023-06-24T08:45:31.471Z,90912.00
2023-06-24T08:46:31.475Z,89216.00
2023-06-24T08:47:31.673Z,87424.00
2023-06-24T08:48:31.648Z,87040.00
2023-06-24T08:49:31.639Z,87392.00
2023-06-24T08:50:31.490Z,85856.00
2023-06-24T08:51:31.404Z,85824.00
2023-06-24T08:52:31.415Z,85760.00
2023-06-24T08:53:31.386Z,88160.00
2023-06-24T08:54:31.389Z,88896.00
2023-06-24T08:55:31.418Z,84800.00
2023-06-24T08:56:31.361Z,82112.00
2023-06-24T08:57:31.341Z,80512.00
2023-06-24T08:58:31.353Z,80736.00
2023-06-24T08:59:31.344Z,82784.00
2023-06-24T09:00:31.387Z,85120.00
2023-06-24T09:01:31.465Z,89344.00
2023-06-24T09:02:31.372Z,92544.00
2023-06-24T09:03:31.326Z,91008.00
2023-06-24T09:04:31.276Z,90400.00
2023-06-24T09:05:31.326Z,85632.00
2023-06-24T09:06:31.299Z,87328.00
2023-06-24T09:07:31.294Z,87264.00
2023-06-24T09:08:31.244Z,89632.00
2023-06-24T09:09:31.313Z,92192.00
2023-06-24T09:10:31.236Z,95168.00
2023-06-24T09:11:31.232Z,93120.00
2023-06-24T09:12:31.241Z,95296.00
2023-06-24T09:13:31.196Z,94336.00
2023-06-24T09:14:31.216Z,96384.00
2023-06-24T09:15:31.256Z,95424.00
2023-06-24T09:16:31.191Z,96192.00
2023-06-24T09:17:31.669Z,97696.00
2023-06-24T09:18:31.169Z,99584.00
2023-06-24T09:19:31.198Z,97600.00
2023-06-24T09:20:31.153Z,97216.00
2023-06-24T09:21:31.150Z,96448.00
2023-06-24T09:22:31.125Z,94848.00
2023-06-24T09:23:31.141Z,95296.00
2023-06-24T09:24:31.090Z,95424.00
2023-06-24T09:25:31.148Z,91744.00
2023-06-24T09:26:31.108Z,88544.00
2023-06-24T09:27:31.068Z,82144.00
2023-06-24T09:28:31.084Z,80832.00
2023-06-24T09:29:31.086Z,84128.00
2023-06-24T09:30:31.022Z,83744.00
2023-06-24T09:31:31.085Z,90112.00
2023-06-24T09:32:31.061Z,91872.00
2023-06-24T09:33:31.104Z,93984.00
2023-06-24T09:34:31.023Z,94080.00
2023-06-24T09:35:30.997Z,92768.00
2023-06-24T09:36:31.006Z,92128.00
2023-06-24T09:37:30.991Z,95744.00
2023-06-24T09:38:30.994Z,95680.00
2023-06-24T09:39:31.137Z,97984.00
2023-06-24T09:40:30.943Z,100704.00
2023-06-24T09:41:30.967Z,98848.00
2023-06-24T09:42:30.944Z,94592.00
2023-06-24T09:43:30.955Z,89632.00
2023-06-24T09:44:30.917Z,88224.00
2023-06-24T09:45:30.907Z,81792.00
2023-06-24T09:46:31.008Z,80608.00
2023-06-24T09:47:30.888Z,83552.00
2023-06-24T09:48:30.887Z,88224.00
2023-06-24T09:49:30.883Z,91584.00
2023-06-24T09:50:30.861Z,93056.00
2023-06-24T09:51:30.866Z,95040.00
2023-06-24T09:52:30.833Z,98272.00
2023-06-24T09:53:30.832Z,98400.00
2023-06-24T09:54:34.270Z,102848.00
2023-06-24T09:55:30.800Z,104928.00
2023-06-24T09:56:30.831Z,104768.00
2023-06-24T09:57:30.804Z,101440.00
2023-06-24T09:58:30.794Z,95712.00
2023-06-24T09:59:30.792Z,93824.00
2023-06-24T10:00:30.780Z,89888.00
2023-06-24T10:01:30.760Z,89312.00
2023-06-24T10:02:30.804Z,91584.00
2023-06-24T10:03:30.813Z,91328.00
2023-06-24T10:04:30.785Z,93504.00
2023-06-24T10:05:30.767Z,90368.00
2023-06-24T10:06:30.725Z,90048.00
2023-06-24T10:07:30.689Z,92320.00
2023-06-24T10:08:30.686Z,89728.00
2023-06-24T10:09:30.727Z,90464.00
2023-06-24T10:10:30.726Z,88352.00
2023-06-24T10:11:30.654Z,91808.00
2023-06-24T10:12:30.684Z,90144.00
2023-06-24T10:13:30.694Z,88992.00
2023-06-24T10:14:30.677Z,88192.00
2023-06-24T10:15:30.625Z,87264.00
2023-06-24T10:16:30.635Z,82912.00
2023-06-24T10:17:30.683Z,84928.00
2023-06-24T10:18:30.592Z,85920.00
2023-06-24T10:19:30.608Z,86752.00
2023-06-24T10:20:30.615Z,83744.00
2023-06-24T10:21:30.614Z,78784.00
2023-06-24T10:22:30.577Z,79584.00
2023-06-24T10:23:30.549Z,81312.00
2023-06-24T10:24:30.604Z,80672.00
2023-06-24T10:25:30.608Z,82720.00
2023-06-24T10:26:30.578Z,82752.00
2023-06-24T10:27:30.569Z,82592.00
2023-06-24T10:28:30.501Z,80320.00
2023-06-24T10:29:30.579Z,80032.00
2023-06-24T10:30:30.528Z,81408.00
2023-06-24T10:31:30.584Z,85152.00
2023-06-24T10:32:30.534Z,86912.00
2023-06-24T10:33:30.503Z,91232.00
2023-06-24T10:34:30.487Z,92704.00
2023-06-24T10:35:30.483Z,95328.00
2023-06-24T10:36:30.451Z,93184.00
2023-06-24T10:37:30.474Z,93568.00
2023-06-24T10:38:30.454Z,94304.00
2023-06-24T10:39:30.427Z,91840.00
2023-06-24T10:40:30.422Z,87328.00
2023-06-24T10:41:30.414Z,86304.00
2023-06-24T10:42:30.474Z,92448.00
2023-06-24T10:43:30.457Z,94112.00
2023-06-24T10:44:30.362Z,95456.00
2023-06-24T10:45:33.778Z,97856.00
2023-06-24T10:46:30.379Z,99808.00
2023-06-24T10:47:30.394Z,97344.00
2023-06-24T10:48:30.416Z,94304.00
2023-06-24T10:49:30.347Z,98272.00
2023-06-24T10:50:30.335Z,96992.00
2023-06-24T10:51:30.319Z,94368.00
2023-06-24T10:52:30.300Z,89824.00
2023-06-24T10:53:30.341Z,89696.00
2023-06-24T10:54:30.340Z,89664.00
2023-06-24T10:55:30.285Z,88288.00
2023-06-24T10:56:30.265Z,89408.00
2023-06-24T10:57:30.259Z,88032.00
2023-06-24T10:58:30.287Z,91968.00
2023-06-24T10:59:30.245Z,94016.00
2023-06-24T11:00:30.249Z,97920.00
2023-06-24T11:01:30.274Z,101792.00
2023-06-24T11:02:30.304Z,102656.00
2023-06-24T11:03:30.285Z,105184.00
2023-06-24T11:04:30.212Z,111136.00
2023-06-24T11:05:30.203Z,107776.00
2023-06-24T11:06:30.184Z,104672.00
2023-06-24T11:07:30.155Z,102080.00
2023-06-24T11:08:30.153Z,98432.00
2023-06-24T11:09:30.207Z,96256.00
2023-06-24T11:10:30.137Z,93632.00
2023-06-24T11:11:30.141Z,93248.00
2023-06-24T11:12:30.136Z,92704.00
2023-06-24T11:13:30.108Z,95936.00
2023-06-24T11:14:30.136Z,96384.00
2023-06-24T11:15:30.132Z,98784.00
2023-06-24T11:16:30.117Z,101920.00
2023-06-24T11:17:30.114Z,103392.00
2023-06-24T11:18:30.054Z,102272.00
2023-06-24T11:19:30.050Z,100672.00
2023-06-24T11:20:30.084Z,96960.00
2023-06-24T11:21:30.063Z,94496.00
2023-06-24T11:22:30.052Z,92608.00
2023-06-24T11:23:30.032Z,94336.00
2023-06-24T11:24:30.054Z,94528.00
2023-06-24T11:25:30.046Z,96896.00
2023-06-24T11:26:30.022Z,96448.00
2023-06-24T11:27:29.994Z,92640.00
2023-06-24T11:28:30.026Z,96160.00
2023-06-24T11:29:29.993Z,95264.00
2023-06-24T11:30:30.005Z,99456.00
2023-06-24T11:31:30.031Z,100096.00
2023-06-24T11:32:30.046Z,102368.00
2023-06-24T11:33:30.080Z,99712.00
2023-06-24T11:34:29.953Z,103584.00
2023-06-24T11:35:29.949Z,104896.00
2023-06-24T11:36:29.943Z,106112.00
2023-06-24T11:37:29.905Z,103424.00
2023-06-24T11:38:29.890Z,98560.00
2023-06-24T11:39:29.877Z,97504.00
2023-06-24T11:40:29.901Z,94176.00
2023-06-24T11:41:29.872Z,91520.00
2023-06-24T11:42:29.917Z,88576.00
2023-06-24T11:43:29.843Z,88832.00
2023-06-24T11:44:29.878Z,92512.00
2023-06-24T11:45:29.900Z,92576.00
2023-06-24T11:46:29.824Z,93824.00
2023-06-24T11:47:29.906Z,95296.00
2023-06-24T11:48:29.869Z,98752.00
2023-06-24T11:49:29.821Z,94048.00
2023-06-24T11:50:29.798Z,88928.00
2023-06-24T11:51:29.791Z,61984.00
2023-06-24T11:52:29.780Z,20704.00
2023-06-24T11:53:29.805Z,5888.00
2023-06-24T11:54:29.828Z,5604.00
2023-06-24T11:55:29.773Z,5512.00
2023-06-24T11:56:29.771Z,5448.00
2023-06-24T11:57:29.775Z,5412.00
2023-06-24T11:58:29.735Z,5380.00
2023-06-24T11:59:29.717Z,5348.00
2023-06-24T12:00:29.768Z,5344.00
2023-06-24T12:01:29.712Z,5356.00
2023-06-24T12:02:29.777Z,5360.00
2023-06-24T12:03:29.840Z,5356.00
2023-06-24T12:04:29.753Z,5344.00
2023-06-24T12:05:29.939Z,5320.00
2023-06-24T12:06:29.672Z,5296.00
2023-06-24T12:07:29.647Z,5288.00
2023-06-24T12:08:42.823Z,5276.00
2023-06-24T12:09:30.601Z,5256.00
2023-06-24T12:10:29.617Z,5240.00
2023-06-24T12:11:29.619Z,5192.00
2023-06-24T12:12:29.628Z,5196.00
2023-06-24T12:13:29.563Z,5184.00
2023-06-24T12:14:29.562Z,5160.00
2023-06-24T12:15:29.554Z,5124.00
2023-06-24T12:16:29.555Z,5104.00
2023-06-24T12:17:29.564Z,5080.00
2023-06-24T12:18:29.595Z,5072.00